createdAt,value
2018-07-12T00:02:16.540Z,17.20
2018-07-12T00:04:44.375Z,17.20
2018-07-12T00:07:12.889Z,17.20
2018-07-12T00:09:40.901Z,17.20
2018-07-12T00:12:08.889Z,17.20
2018-07-12T00:14:37.868Z,17.20
2018-07-12T00:17:05.760Z,17.20
2018-07-12T00:19:33.842Z,17.20
2018-07-12T00:22:04.287Z,17.10
2018-07-12T00:24:39.264Z,17.10
2018-07-12T00:27:08.396Z,17.10
2018-07-12T00:29:36.403Z,17.10
2018-07-12T00:32:04.336Z,17.00
2018-07-12T00:37:00.284Z,16.90
2018-07-12T00:39:28.172Z,16.90
2018-07-12T00:41:56.210Z,16.80
2018-07-12T00:44:24.136Z,16.90
2018-07-12T00:46:52.090Z,16.80
2018-07-12T00:49:19.985Z,16.80
2018-07-12T00:51:47.860Z,16.70
2018-07-12T00:54:15.877Z,16.70
2018-07-12T00:56:43.740Z,16.70
2018-07-12T00:59:11.775Z,16.70
2018-07-12T01:01:39.719Z,16.60
2018-07-12T01:04:07.628Z,16.60
2018-07-12T01:06:36.920Z,16.60
2018-07-12T01:09:07.528Z,16.50
2018-07-12T01:11:39.120Z,16.50
2018-07-12T01:14:07.158Z,16.40
2018-07-12T01:16:35.040Z,16.40
2018-07-12T01:19:03.081Z,16.40
2018-07-12T01:21:30.969Z,16.30
2018-07-12T01:23:58.843Z,16.30
2018-07-12T01:26:26.847Z,16.30
2018-07-12T01:28:54.700Z,16.30
2018-07-12T01:31:22.585Z,16.20
2018-07-12T01:33:50.538Z,16.30
2018-07-12T01:36:18.448Z,16.20
2018-07-12T01:38:46.315Z,16.20
2018-07-12T01:41:14.458Z,16.20
2018-07-12T01:43:42.366Z,16.10
2018-07-12T01:46:10.331Z,16.10
2018-07-12T01:48:38.283Z,16.10
2018-07-12T01:53:34.452Z,16.10
2018-07-12T01:56:02.333Z,16.00
2018-07-12T01:58:30.341Z,16.00
2018-07-12T02:00:58.291Z,16.00
2018-07-12T02:03:26.180Z,16.00
2018-07-12T02:05:54.070Z,16.10
2018-07-12T02:08:21.997Z,16.20
2018-07-12T02:10:49.977Z,16.20
2018-07-12T02:13:17.851Z,16.30
2018-07-12T02:15:45.818Z,16.50
2018-07-12T02:18:14.178Z,16.70
2018-07-12T02:20:42.172Z,16.80
2018-07-12T02:23:10.116Z,16.90
2018-07-12T02:25:38.106Z,16.90
2018-07-12T02:28:06.028Z,16.80
2018-07-12T02:30:34.052Z,16.80
2018-07-12T02:33:02.025Z,16.70
2018-07-12T02:35:29.967Z,16.70
2018-07-12T02:37:57.813Z,16.70
2018-07-12T02:40:25.789Z,16.60
2018-07-12T02:42:53.709Z,16.60
2018-07-12T02:45:22.921Z,16.60
2018-07-12T02:47:53.580Z,16.70
2018-07-12T02:50:22.614Z,16.80
2018-07-12T02:52:50.591Z,16.70
2018-07-12T02:55:18.572Z,16.60
2018-07-12T02:57:46.476Z,16.50
2018-07-12T03:00:14.390Z,16.40
2018-07-12T03:02:42.364Z,16.40
2018-07-12T03:05:10.353Z,16.30
2018-07-12T03:07:38.250Z,16.30
2018-07-12T03:10:06.146Z,16.30
2018-07-12T03:12:34.036Z,16.30
2018-07-12T03:15:03.027Z,16.30
2018-07-12T03:17:31.006Z,16.30
2018-07-12T03:19:58.992Z,16.30
2018-07-12T03:22:26.990Z,16.30
2018-07-12T03:24:54.869Z,16.30
2018-07-12T03:29:51.031Z,16.30
2018-07-12T03:32:19.105Z,16.30
2018-07-12T03:34:47.209Z,16.30
2018-07-12T03:37:15.091Z,16.30
2018-07-12T03:39:43.075Z,16.30
2018-07-12T03:42:10.960Z,16.30
2018-07-12T03:44:39.156Z,16.30
2018-07-12T03:47:07.108Z,16.30
2018-07-12T03:49:34.987Z,16.30
2018-07-12T03:52:02.938Z,16.20
2018-07-12T03:54:30.832Z,16.20
2018-07-12T03:56:58.770Z,16.20
2018-07-12T03:59:26.740Z,16.30
2018-07-12T04:01:56.712Z,16.30
2018-07-12T04:04:24.658Z,16.30
2018-07-12T04:06:53.067Z,16.30
2018-07-12T04:09:20.968Z,16.30
2018-07-12T04:11:48.864Z,16.30
2018-07-12T04:14:20.802Z,16.20
2018-07-12T04:16:53.213Z,16.30
2018-07-12T04:19:27.087Z,16.30
2018-07-12T04:21:57.039Z,16.40
2018-07-12T04:24:27.154Z,16.40
2018-07-12T04:26:57.288Z,16.50
2018-07-12T04:29:29.407Z,16.50
2018-07-12T04:31:57.323Z,16.50
2018-07-12T04:34:25.261Z,16.60
2018-07-12T04:39:55.646Z,16.80
2018-07-12T04:42:23.650Z,16.80
2018-07-12T04:44:51.587Z,16.80
2018-07-12T04:47:19.415Z,16.80
2018-07-12T04:49:47.302Z,16.90
2018-07-12T04:52:15.287Z,17.00
2018-07-12T04:54:43.207Z,17.10
2018-07-12T04:57:12.285Z,17.10
2018-07-12T04:59:40.252Z,17.20
2018-07-12T05:02:08.127Z,17.20
2018-07-12T05:04:36.060Z,17.30
2018-07-12T05:07:04.075Z,17.40
2018-07-12T05:09:31.976Z,17.40
2018-07-12T05:11:59.882Z,17.40
2018-07-12T05:14:27.800Z,17.50
2018-07-12T05:16:55.709Z,17.60
2018-07-12T05:19:23.727Z,17.60
2018-07-12T05:21:51.664Z,17.60
2018-07-12T05:24:19.644Z,17.60
2018-07-12T05:26:47.558Z,17.70
2018-07-12T05:29:15.513Z,17.70
2018-07-12T05:31:43.369Z,17.70
2018-07-12T05:34:11.252Z,17.70
2018-07-12T05:36:59.897Z,17.70
2018-07-12T05:39:28.888Z,17.70
2018-07-12T05:41:57.997Z,17.70
2018-07-12T05:44:27.188Z,17.70
2018-07-12T05:46:56.220Z,17.60
2018-07-12T05:49:26.165Z,17.50
2018-07-12T05:51:55.512Z,17.50
2018-07-12T05:54:25.343Z,17.50
2018-07-12T05:56:55.138Z,17.50
2018-07-12T05:59:25.279Z,17.50
2018-07-12T06:02:05.752Z,17.50
2018-07-12T06:04:35.169Z,17.40
2018-07-12T06:07:12.039Z,17.40
2018-07-12T06:09:56.011Z,17.40
2018-07-12T06:12:27.170Z,17.30
2018-07-12T06:14:56.707Z,17.20
2018-07-12T06:17:26.489Z,17.20
2018-07-12T06:19:55.893Z,17.10
2018-07-12T06:22:25.503Z,17.10
2018-07-12T06:24:55.111Z,17.10
2018-07-12T06:27:24.528Z,17.20
2018-07-12T06:29:53.938Z,17.20
2018-07-12T06:33:04.475Z,17.20
2018-07-12T06:35:33.980Z,17.20
2018-07-12T06:38:03.725Z,17.10
2018-07-12T06:40:33.384Z,17.20
2018-07-12T06:43:02.778Z,17.10
2018-07-12T06:49:58.820Z,17.10
2018-07-12T06:52:28.275Z,17.10
2018-07-12T06:54:57.588Z,17.10
2018-07-12T06:57:26.935Z,17.00
2018-07-12T06:59:56.904Z,17.00
2018-07-12T07:02:26.355Z,17.00
2018-07-12T07:04:55.686Z,16.90
2018-07-12T07:07:25.079Z,17.00
2018-07-12T07:09:54.858Z,17.00
2018-07-12T07:12:24.151Z,17.00
2018-07-12T07:14:53.447Z,17.00
2018-07-12T07:17:22.761Z,17.00
2018-07-12T07:19:51.994Z,17.00
2018-07-12T07:22:21.247Z,17.10
2018-07-12T07:24:50.562Z,17.10
2018-07-12T07:42:02.091Z,16.60
2018-07-12T07:44:32.005Z,16.70
2018-07-12T07:47:01.473Z,16.80
2018-07-12T07:49:33.515Z,16.90
2018-07-12T07:52:03.451Z,17.10
2018-07-12T07:54:33.618Z,17.20
2018-07-12T07:57:03.017Z,17.20
2018-07-12T07:59:32.949Z,17.30
2018-07-12T08:02:02.597Z,17.30
2018-07-12T08:04:32.665Z,17.30
2018-07-12T08:07:02.257Z,17.30
2018-07-12T08:09:32.105Z,17.30
2018-07-12T08:12:01.667Z,17.30
2018-07-12T08:14:31.018Z,17.30
2018-07-12T08:17:00.734Z,17.30
2018-07-12T08:19:30.135Z,17.30
2018-07-12T08:22:10.735Z,17.40
2018-07-12T08:24:40.096Z,17.40
2018-07-12T08:27:09.520Z,17.40
2018-07-12T08:29:39.083Z,17.30
2018-07-12T08:32:08.482Z,17.40
2018-07-12T08:34:37.853Z,17.40
2018-07-12T08:37:07.280Z,17.30
2018-07-12T08:39:36.756Z,17.30
2018-07-12T08:42:07.290Z,17.30
2018-07-12T08:44:36.716Z,17.30
2018-07-12T08:47:06.106Z,17.40
2018-07-12T08:49:36.007Z,17.40
2018-07-12T08:52:05.619Z,17.40
2018-07-12T08:54:36.149Z,17.50
2018-07-12T08:57:05.726Z,17.50
2018-07-12T08:59:35.853Z,17.50
2018-07-12T09:02:05.635Z,17.60
2018-07-12T09:04:35.684Z,17.60
2018-07-12T09:07:05.119Z,17.70
2018-07-12T09:09:34.806Z,17.70
2018-07-12T09:12:04.332Z,17.60
2018-07-12T09:14:33.641Z,17.60
2018-07-12T09:17:02.891Z,17.60
2018-07-12T09:19:32.385Z,17.70
2018-07-12T09:22:01.770Z,17.70
2018-07-12T09:24:31.261Z,17.70
2018-07-12T09:27:00.779Z,17.80
2018-07-12T09:29:30.154Z,17.80
2018-07-12T09:31:59.678Z,17.80
2018-07-12T09:34:29.060Z,17.70
2018-07-12T09:36:58.588Z,17.70
2018-07-12T09:39:27.962Z,17.60
2018-07-12T09:41:57.576Z,17.60
2018-07-12T09:44:27.182Z,17.60
2018-07-12T09:46:56.657Z,17.40
2018-07-12T09:49:26.092Z,17.40
2018-07-12T09:51:56.008Z,17.30
2018-07-12T09:57:20.032Z,17.10
2018-07-12T09:59:49.619Z,16.90
2018-07-12T10:02:24.793Z,16.80
2018-07-12T10:04:58.481Z,16.70
2018-07-12T10:07:39.226Z,16.60
2018-07-12T10:10:08.628Z,16.60
2018-07-12T10:12:45.232Z,16.60
2018-07-12T10:15:18.782Z,16.60
2018-07-12T10:17:55.284Z,16.50
2018-07-12T10:20:24.758Z,16.50
2018-07-12T10:22:54.299Z,16.60
2018-07-12T10:25:23.768Z,16.60
2018-07-12T10:27:53.174Z,16.60
2018-07-12T10:30:22.734Z,16.70
2018-07-12T10:32:52.219Z,16.70
2018-07-12T10:35:21.528Z,16.70
2018-07-12T10:37:51.974Z,16.80
2018-07-12T10:40:21.543Z,16.80
2018-07-12T10:42:50.942Z,16.80
2018-07-12T10:45:20.323Z,16.80
2018-07-12T10:47:49.716Z,16.90
2018-07-12T10:50:19.155Z,16.90
2018-07-12T10:52:48.548Z,16.90
2018-07-12T10:55:17.923Z,16.90
2018-07-12T11:00:16.324Z,16.90
2018-07-12T11:05:14.890Z,17.00
2018-07-12T11:07:44.219Z,17.00
2018-07-12T11:10:13.686Z,17.00
2018-07-12T11:12:43.066Z,17.00
2018-07-12T11:15:12.505Z,17.00
2018-07-12T11:17:42.429Z,17.00
2018-07-12T11:20:11.774Z,17.00
2018-07-12T11:22:41.366Z,17.00
2018-07-12T11:25:10.869Z,17.00
2018-07-12T11:27:40.592Z,17.10
2018-07-12T11:30:09.691Z,17.20
2018-07-12T11:32:39.081Z,17.20
2018-07-12T11:35:08.592Z,17.30
2018-07-12T11:37:38.066Z,17.30
2018-07-12T11:40:07.739Z,17.30
2018-07-12T11:42:37.093Z,17.40
2018-07-12T11:45:06.581Z,17.40
2018-07-12T11:47:36.198Z,17.30
2018-07-12T11:50:05.932Z,17.30
2018-07-12T11:56:01.357Z,17.30
2018-07-12T11:58:38.276Z,17.30
2018-07-12T12:01:07.649Z,17.30
2018-07-12T12:03:36.973Z,17.30
2018-07-12T12:08:35.429Z,17.20
2018-07-12T12:11:04.931Z,17.20
2018-07-12T12:13:34.306Z,17.20
2018-07-12T12:16:03.876Z,17.20
2018-07-12T12:18:33.436Z,17.20
2018-07-12T12:21:02.753Z,17.30
2018-07-12T12:23:32.035Z,17.40
2018-07-12T12:26:01.537Z,17.50
2018-07-12T12:28:30.880Z,17.60
2018-07-12T12:31:00.219Z,17.70
2018-07-12T12:33:29.700Z,17.80
2018-07-12T12:35:59.194Z,17.90
2018-07-12T12:38:28.616Z,18.00
2018-07-12T12:40:57.958Z,18.10
2018-07-12T12:43:27.308Z,18.10
2018-07-12T12:45:56.764Z,18.10
2018-07-12T12:48:26.185Z,18.10
2018-07-12T12:50:55.595Z,18.10
2018-07-12T12:53:24.966Z,18.20
2018-07-12T12:55:54.482Z,18.20
2018-07-12T12:58:23.886Z,18.20
2018-07-12T13:00:53.333Z,18.30
2018-07-12T13:03:22.739Z,18.40
2018-07-12T13:05:52.220Z,18.60
2018-07-12T13:08:21.528Z,18.70
2018-07-12T13:10:51.050Z,18.80
2018-07-12T13:13:20.383Z,18.80
2018-07-12T13:15:49.840Z,18.90
2018-07-12T13:18:19.502Z,19.00
2018-07-12T13:20:49.972Z,19.10
2018-07-12T13:23:19.764Z,19.10
2018-07-12T13:25:49.693Z,19.20
2018-07-12T13:28:19.269Z,19.30
2018-07-12T13:30:48.805Z,19.20
2018-07-12T13:33:19.221Z,19.30
2018-07-12T13:35:49.041Z,19.40
2018-07-12T13:38:18.370Z,19.40
2018-07-12T13:40:48.191Z,19.50
2018-07-12T13:43:17.572Z,19.60
2018-07-12T13:45:48.260Z,19.80
2018-07-12T13:48:17.671Z,19.90
2018-07-12T13:50:47.215Z,20.00
2018-07-12T13:53:16.678Z,20.20
2018-07-12T13:55:46.206Z,20.40
2018-07-12T14:00:44.449Z,20.50
2018-07-12T14:03:30.094Z,20.50
2018-07-12T14:05:59.573Z,20.50
2018-07-12T14:08:29.018Z,20.60
2018-07-12T14:10:58.334Z,20.60
2018-07-12T14:13:27.768Z,20.70
2018-07-12T14:15:57.160Z,20.80
2018-07-12T14:18:26.614Z,21.00
2018-07-12T14:20:56.056Z,21.10
2018-07-12T14:23:25.562Z,21.20
2018-07-12T14:25:54.926Z,21.20
2018-07-12T14:28:24.248Z,21.30
2018-07-12T14:30:53.793Z,21.40
2018-07-12T14:33:23.300Z,21.50
2018-07-12T14:35:53.185Z,21.60
2018-07-12T14:38:22.618Z,21.80
2018-07-12T14:40:53.433Z,22.00
2018-07-12T14:43:23.230Z,22.20
2018-07-12T14:45:53.326Z,22.30
2018-07-12T14:48:22.638Z,22.50
2018-07-12T14:50:57.662Z,22.70
2018-07-12T14:53:27.419Z,23.00
2018-07-12T14:55:56.835Z,23.40
2018-07-12T14:58:26.210Z,23.90
2018-07-12T15:00:55.750Z,24.20
2018-07-12T15:03:25.249Z,24.50
2018-07-12T15:05:54.631Z,25.10
2018-07-12T15:08:24.043Z,25.70
2018-07-12T15:10:53.999Z,26.00
2018-07-12T15:13:23.411Z,25.80
2018-07-12T15:15:52.818Z,25.60
2018-07-12T15:18:22.286Z,25.20
2018-07-12T15:20:53.370Z,24.80
2018-07-12T15:23:22.687Z,24.40
2018-07-12T15:25:52.915Z,24.00
2018-07-12T15:28:22.252Z,23.80
2018-07-12T15:30:51.789Z,23.60
2018-07-12T15:33:21.821Z,23.50
2018-07-12T15:35:51.235Z,23.20
2018-07-12T15:38:20.627Z,23.00
2018-07-12T15:40:49.912Z,22.90
2018-07-12T15:43:19.220Z,22.90
2018-07-12T15:45:48.499Z,22.90
2018-07-12T15:48:18.032Z,22.80
2018-07-12T15:50:47.360Z,22.80
2018-07-12T15:53:16.748Z,22.70
2018-07-12T15:55:46.006Z,22.70
2018-07-12T15:58:15.320Z,22.60
2018-07-12T16:00:44.734Z,22.50
2018-07-12T16:03:15.152Z,22.40
2018-07-12T16:05:44.479Z,22.40
2018-07-12T16:08:13.802Z,22.30
2018-07-12T16:10:43.302Z,22.30
2018-07-12T16:13:12.722Z,22.20
2018-07-12T16:15:42.227Z,22.20
2018-07-12T16:18:11.726Z,22.20
2018-07-12T16:20:44.385Z,22.20
2018-07-12T16:23:14.845Z,22.20
2018-07-12T16:28:13.145Z,22.30
2018-07-12T16:30:42.584Z,22.30
2018-07-12T16:33:12.105Z,22.30
2018-07-12T16:35:41.564Z,22.40
2018-07-12T16:38:11.010Z,22.40
2018-07-12T16:40:40.444Z,22.40
2018-07-12T16:43:09.768Z,22.30
2018-07-12T16:48:07.896Z,22.30
2018-07-12T16:50:37.285Z,22.30
2018-07-12T16:53:07.069Z,22.30
2018-07-12T16:55:36.466Z,22.30
2018-07-12T16:58:05.962Z,22.30
2018-07-12T17:00:35.323Z,22.30
2018-07-12T17:03:04.963Z,22.30
2018-07-12T17:05:34.427Z,22.30
2018-07-12T17:08:04.033Z,22.30
2018-07-12T17:10:33.376Z,22.40
2018-07-12T17:13:03.057Z,22.40
2018-07-12T17:15:32.576Z,22.40
2018-07-12T17:18:02.099Z,22.40
2018-07-12T17:20:31.633Z,22.40
2018-07-12T17:23:01.258Z,22.40
2018-07-12T17:25:30.747Z,22.40
2018-07-12T17:28:01.145Z,22.30
2018-07-12T17:30:30.758Z,21.70
2018-07-12T17:33:01.846Z,22.20
2018-07-12T17:35:31.228Z,22.20
2018-07-12T17:38:00.628Z,22.20
2018-07-12T17:40:30.001Z,22.30
2018-07-12T17:42:59.976Z,22.30
2018-07-12T17:47:58.207Z,22.30
2018-07-12T17:50:27.658Z,22.40
2018-07-12T17:52:57.073Z,22.40
2018-07-12T17:57:55.268Z,22.50
2018-07-12T18:00:24.609Z,22.50
2018-07-12T18:02:54.049Z,22.50
2018-07-12T18:05:23.657Z,22.40
2018-07-12T18:07:52.993Z,22.40
2018-07-12T18:10:22.642Z,22.30
2018-07-12T18:12:52.302Z,22.30
2018-07-12T18:15:21.993Z,22.20
2018-07-12T18:17:51.833Z,22.20
2018-07-12T18:20:21.527Z,22.10
2018-07-12T18:22:51.195Z,22.00
2018-07-12T18:25:20.837Z,22.00
2018-07-12T18:27:50.433Z,21.90
2018-07-12T18:30:20.402Z,21.90
2018-07-12T18:32:50.017Z,21.80
2018-07-12T18:35:19.617Z,21.80
2018-07-12T18:37:49.496Z,21.80
2018-07-12T18:40:19.719Z,21.80
2018-07-12T18:42:49.576Z,21.80
2018-07-12T18:45:19.411Z,21.70
2018-07-12T18:47:49.542Z,21.70
2018-07-12T18:50:19.515Z,21.60
2018-07-12T18:52:49.662Z,21.60
2018-07-12T18:55:20.733Z,21.60
2018-07-12T18:57:50.457Z,21.50
2018-07-12T19:00:20.291Z,21.60
2018-07-12T19:02:49.764Z,21.50
2018-07-12T19:05:19.444Z,21.50
2018-07-12T19:07:49.092Z,21.50
2018-07-12T19:10:18.840Z,21.40
2018-07-12T19:12:48.910Z,21.50
2018-07-12T19:15:20.050Z,21.50
2018-07-12T19:20:22.328Z,21.40
2018-07-12T19:22:51.925Z,21.40
2018-07-12T19:25:21.831Z,21.40
2018-07-12T19:27:51.349Z,21.40
2018-07-12T19:30:21.172Z,21.40
2018-07-12T19:32:52.683Z,21.40
2018-07-12T19:35:24.071Z,21.40
2018-07-12T19:37:54.221Z,21.40
2018-07-12T19:40:24.045Z,21.40
2018-07-12T19:42:54.107Z,21.30
2018-07-12T19:45:24.026Z,21.30
2018-07-12T19:47:53.855Z,21.30
2018-07-12T19:50:23.834Z,21.20
2018-07-12T19:52:53.690Z,21.20
2018-07-12T19:55:24.052Z,21.20
2018-07-12T19:57:54.825Z,21.20
2018-07-12T20:00:24.942Z,21.20
2018-07-12T20:02:55.008Z,21.20
2018-07-12T20:05:25.177Z,21.20
2018-07-12T20:07:54.825Z,21.20
2018-07-12T20:10:24.776Z,21.20
2018-07-12T20:12:54.580Z,21.20
2018-07-12T20:15:24.105Z,21.20
2018-07-12T20:17:53.979Z,21.20
2018-07-12T20:20:24.164Z,21.20
2018-07-12T20:22:54.358Z,21.20
2018-07-12T20:25:24.799Z,21.20
2018-07-12T20:27:55.051Z,21.20
2018-07-12T20:30:25.146Z,21.20
2018-07-12T20:32:55.286Z,21.20
2018-07-12T20:35:25.848Z,21.20
2018-07-12T20:37:55.467Z,21.20
2018-07-12T20:40:25.226Z,21.20
2018-07-12T20:42:54.762Z,21.20
2018-07-12T20:45:24.294Z,21.20
2018-07-12T20:47:54.650Z,21.20
2018-07-12T20:50:24.356Z,21.10
2018-07-12T20:52:54.772Z,21.10
2018-07-12T20:55:24.649Z,21.10
2018-07-12T20:57:54.443Z,21.00
2018-07-12T21:00:24.258Z,21.10
2018-07-12T21:02:53.658Z,21.10
2018-07-12T21:05:23.913Z,21.00
2018-07-12T21:07:54.032Z,21.00
2018-07-12T21:10:23.702Z,21.00
2018-07-12T21:12:53.234Z,20.90
2018-07-12T21:15:23.337Z,20.90
2018-07-12T21:17:52.871Z,20.90
2018-07-12T21:20:22.443Z,20.90
2018-07-12T21:22:52.354Z,20.90
2018-07-12T21:25:22.191Z,20.90
2018-07-12T21:27:51.893Z,20.90
2018-07-12T21:30:21.320Z,20.90
2018-07-12T21:32:50.985Z,20.90
2018-07-12T21:35:20.367Z,20.90
2018-07-12T21:37:49.772Z,20.90
2018-07-12T21:40:19.945Z,20.90
2018-07-12T21:42:49.754Z,20.90
2018-07-12T21:45:19.877Z,20.90
2018-07-12T21:47:49.679Z,20.90
2018-07-12T21:50:19.244Z,20.90
2018-07-12T21:52:48.809Z,20.90
2018-07-12T21:55:18.319Z,20.90
2018-07-12T21:57:47.699Z,20.90
2018-07-12T22:00:17.380Z,20.90
2018-07-12T22:02:46.726Z,20.90
2018-07-12T22:05:16.427Z,20.90
2018-07-12T22:08:19.747Z,20.90
2018-07-12T22:10:50.686Z,20.90
2018-07-12T22:13:20.586Z,20.90
2018-07-12T22:15:49.986Z,20.80
2018-07-12T22:18:19.312Z,20.80
2018-07-12T22:20:48.639Z,20.80
2018-07-12T22:23:17.944Z,20.80
2018-07-12T22:25:47.244Z,20.80
2018-07-12T22:28:16.916Z,20.80
2018-07-12T22:30:46.149Z,20.80
2018-07-12T22:33:15.805Z,20.80
2018-07-12T22:35:45.012Z,20.80
2018-07-12T22:38:15.077Z,20.70
2018-07-12T22:40:44.359Z,20.70
2018-07-12T22:43:13.595Z,20.60
2018-07-12T22:45:43.915Z,20.60
2018-07-12T22:48:13.764Z,20.60
2018-07-12T22:50:43.278Z,20.50
2018-07-12T22:53:12.506Z,20.50
2018-07-12T22:55:41.761Z,20.50
2018-07-12T22:58:11.032Z,20.40
2018-07-12T23:00:41.174Z,20.40
2018-07-12T23:03:13.571Z,20.40
2018-07-12T23:05:42.811Z,20.30
2018-07-12T23:08:12.116Z,20.30
2018-07-12T23:10:41.515Z,20.30
2018-07-12T23:13:10.960Z,20.20
2018-07-12T23:15:40.306Z,20.20
2018-07-12T23:18:09.610Z,20.20
2018-07-12T23:20:38.855Z,20.20
2018-07-12T23:23:08.200Z,20.10
2018-07-12T23:25:37.659Z,20.10
2018-07-12T23:28:07.416Z,20.10
2018-07-12T23:30:36.722Z,20.10
2018-07-12T23:33:06.015Z,20.00
2018-07-12T23:35:35.328Z,20.00
2018-07-12T23:38:04.801Z,19.90
2018-07-12T23:40:34.015Z,19.90
2018-07-12T23:43:03.261Z,19.90
2018-07-12T23:45:32.569Z,19.80
2018-07-12T23:48:01.899Z,19.70
2018-07-12T23:50:31.315Z,19.70
2018-07-12T23:53:00.650Z,19.70
2018-07-12T23:55:29.950Z,19.60
2018-07-12T23:57:59.142Z,19.60
